createdAt,value
2023-08-20T00:01:18.388Z,96788.31
2023-08-20T00:03:45.090Z,96784.84
2023-08-20T00:06:11.719Z,96792.13
2023-08-20T00:08:38.310Z,96791.78
2023-08-20T00:11:04.915Z,96794.44
2023-08-20T00:13:31.518Z,96793.28
2023-08-20T00:15:58.174Z,96794.09
2023-08-20T00:18:24.794Z,96797.94
2023-08-20T00:20:51.407Z,96799.50
2023-08-20T00:23:17.995Z,96792.16
2023-08-20T00:25:44.605Z,96791.78
2023-08-20T00:28:11.217Z,96788.69
2023-08-20T00:30:37.810Z,96784.41
2023-08-20T00:33:04.430Z,96792.88
2023-08-20T00:35:31.110Z,96796.41
2023-08-20T00:37:57.701Z,96796.78
2023-08-20T00:40:24.320Z,96792.94
2023-08-20T00:42:50.915Z,96802.97
2023-08-20T00:45:17.535Z,96806.06
2023-08-20T00:47:44.192Z,96810.28
2023-08-20T00:50:10.824Z,96802.19
2023-08-20T00:52:37.480Z,96809.53
2023-08-20T00:55:04.081Z,96808.38
2023-08-20T00:57:30.694Z,96803.31
2023-08-20T00:59:57.315Z,96814.06
2023-08-20T01:02:23.905Z,96817.97
2023-08-20T01:04:50.566Z,96816.09
2023-08-20T01:07:17.202Z,96815.66
2023-08-20T01:09:43.795Z,96822.59
2023-08-20T01:12:10.394Z,96826.50
2023-08-20T01:14:37.113Z,96822.97
2023-08-20T01:17:03.727Z,96830.31
2023-08-20T01:19:30.444Z,96831.09
2023-08-20T01:21:57.039Z,96828.78
2023-08-20T01:24:23.649Z,96830.31
2023-08-20T01:26:50.248Z,96825.69
2023-08-20T01:29:16.835Z,96832.63
2023-08-20T01:31:43.435Z,96836.88
2023-08-20T01:34:10.050Z,96831.09
2023-08-20T01:36:36.668Z,96830.31
2023-08-20T01:39:03.287Z,96828.38
2023-08-20T01:41:29.883Z,96833.03
2023-08-20T01:43:56.484Z,96834.94
2023-08-20T01:46:23.167Z,96830.31
2023-08-20T01:48:49.861Z,96832.28
2023-08-20T01:51:16.467Z,96831.13
2023-08-20T01:53:43.068Z,96836.13
2023-08-20T01:56:09.674Z,96830.31
2023-08-20T01:58:36.279Z,96838.47
2023-08-20T02:01:02.945Z,96831.53
2023-08-20T02:03:29.574Z,96835.75
2023-08-20T02:05:56.191Z,96834.22
2023-08-20T02:08:22.809Z,96845.41
2023-08-20T02:10:49.414Z,96854.69
2023-08-20T02:13:16.113Z,96850.06
2023-08-20T02:15:42.712Z,96860.84
2023-08-20T02:18:09.405Z,96857.38
2023-08-20T02:20:36.057Z,96868.19
2023-08-20T02:23:02.667Z,96862.41
2023-08-20T02:25:29.265Z,96859.31
2023-08-20T02:27:55.899Z,96858.16
2023-08-20T02:30:22.501Z,96865.13
2023-08-20T02:32:49.257Z,96865.88
2023-08-20T02:35:15.918Z,96863.97
2023-08-20T02:37:42.554Z,96863.56
2023-08-20T02:40:09.179Z,96864.34
2023-08-20T02:42:35.790Z,96854.31
2023-08-20T02:45:02.393Z,96857.44
2023-08-20T02:47:29.000Z,96857.81
2023-08-20T02:49:55.612Z,96862.06
2023-08-20T02:52:22.215Z,96850.06
2023-08-20T02:54:48.836Z,96849.72
2023-08-20T02:57:15.470Z,96854.75
2023-08-20T02:59:42.076Z,96854.75
2023-08-20T03:02:08.672Z,96862.84
2023-08-20T03:04:35.303Z,96861.31
2023-08-20T03:07:01.939Z,96867.84
2023-08-20T03:09:28.560Z,96866.66
2023-08-20T03:11:55.284Z,96872.03
2023-08-20T03:14:21.881Z,96865.50
2023-08-20T03:16:48.515Z,96867.03
2023-08-20T03:19:15.109Z,96869.31
2023-08-20T03:21:41.724Z,96865.50
2023-08-20T03:24:08.327Z,96862.78
2023-08-20T03:26:34.928Z,96872.03
2023-08-20T03:29:01.518Z,96870.50
2023-08-20T03:31:28.135Z,96871.66
2023-08-20T03:33:54.741Z,96866.63
2023-08-20T03:36:21.371Z,96863.16
2023-08-20T03:38:47.955Z,96863.94
2023-08-20T03:41:14.544Z,96872.81
2023-08-20T03:43:41.159Z,96871.66
2023-08-20T03:46:07.775Z,96871.28
2023-08-20T03:48:34.434Z,96866.63
2023-08-20T03:51:01.035Z,96870.47
2023-08-20T03:53:27.705Z,96868.53
2023-08-20T03:55:54.325Z,96864.31
2023-08-20T03:58:20.915Z,96865.47
2023-08-20T04:00:47.509Z,96871.28
2023-08-20T04:03:14.119Z,96870.09
2023-08-20T04:05:40.741Z,96873.59
2023-08-20T04:08:07.362Z,96876.66
2023-08-20T04:10:34.054Z,96884.38
2023-08-20T04:13:00.657Z,96892.09
2023-08-20T04:15:27.253Z,96894.03
2023-08-20T04:17:53.900Z,96895.97
2023-08-20T04:20:20.608Z,96891.31
2023-08-20T04:22:47.199Z,96890.56
2023-08-20T04:25:13.812Z,96895.19
2023-08-20T04:27:40.454Z,96888.25
2023-08-20T04:30:07.115Z,96892.09
2023-08-20T04:32:33.820Z,96889.00
2023-08-20T04:35:00.474Z,96881.31
2023-08-20T04:37:27.073Z,96889.03
2023-08-20T04:39:53.697Z,96882.09
2023-08-20T04:42:20.308Z,96880.16
2023-08-20T04:44:46.916Z,96883.66
2023-08-20T04:47:13.517Z,96893.72
2023-08-20T04:49:40.119Z,96909.16
2023-08-20T04:52:06.736Z,96913.03
2023-08-20T04:54:33.347Z,96908.41
2023-08-20T04:56:59.957Z,96918.00
2023-08-20T04:59:26.600Z,96907.97
2023-08-20T05:01:53.225Z,96907.22
2023-08-20T05:04:19.860Z,96905.69
2023-08-20T05:06:46.446Z,96907.25
2023-08-20T05:09:13.041Z,96914.19
2023-08-20T05:11:39.646Z,96916.13
2023-08-20T05:14:06.262Z,96914.19
2023-08-20T05:16:32.893Z,96906.88
2023-08-20T05:18:59.664Z,96907.63
2023-08-20T05:21:26.861Z,96919.22
2023-08-20T05:23:53.600Z,96913.81
2023-08-20T05:26:20.240Z,96908.03
2023-08-20T05:28:46.847Z,96919.25
2023-08-20T05:31:13.498Z,96924.22
2023-08-20T05:33:40.127Z,96926.19
2023-08-20T05:36:06.754Z,96925.41
2023-08-20T05:38:33.361Z,96928.88
2023-08-20T05:40:59.975Z,96929.63
2023-08-20T05:43:26.592Z,96935.41
2023-08-20T05:45:53.226Z,96935.41
2023-08-20T05:48:19.874Z,96940.00
2023-08-20T05:50:46.504Z,96941.16
2023-08-20T05:53:13.106Z,96942.28
2023-08-20T05:55:39.707Z,96941.50
2023-08-20T05:58:06.310Z,96941.50
2023-08-20T06:00:32.907Z,96949.25
2023-08-20T06:02:59.539Z,96937.72
2023-08-20T06:05:26.137Z,96943.56
2023-08-20T06:07:52.766Z,96950.47
2023-08-20T06:10:19.372Z,96955.06
2023-08-20T06:12:45.967Z,96946.94
2023-08-20T06:15:12.613Z,96951.19
2023-08-20T06:17:39.821Z,96955.41
2023-08-20T06:20:06.872Z,96948.47
2023-08-20T06:22:33.500Z,96946.53
2023-08-20T06:25:00.112Z,96946.13
2023-08-20T06:27:26.724Z,96948.84
2023-08-20T06:29:53.319Z,96948.06
2023-08-20T06:32:19.913Z,96952.31
2023-08-20T06:34:46.516Z,96955.41
2023-08-20T06:37:13.105Z,96951.16
2023-08-20T06:39:39.710Z,96953.84
2023-08-20T06:42:06.320Z,96959.25
2023-08-20T06:44:33.068Z,96962.31
2023-08-20T06:46:59.663Z,96961.16
2023-08-20T06:49:26.251Z,96961.53
2023-08-20T06:51:52.851Z,96966.16
2023-08-20T06:54:19.465Z,96970.41
2023-08-20T06:56:47.245Z,96974.66
2023-08-20T06:59:15.231Z,96980.47
2023-08-20T07:01:41.875Z,96986.63
2023-08-20T07:04:08.496Z,96985.03
2023-08-20T07:06:35.091Z,96983.53
2023-08-20T07:09:01.679Z,96977.34
2023-08-20T07:11:28.276Z,96979.31
2023-08-20T07:13:54.927Z,96976.22
2023-08-20T07:16:21.635Z,96969.28
2023-08-20T07:18:48.264Z,96972.75
2023-08-20T07:21:14.876Z,96969.31
2023-08-20T07:23:41.496Z,96971.66
2023-08-20T07:26:08.107Z,96972.81
2023-08-20T07:28:34.727Z,96978.59
2023-08-20T07:31:03.335Z,96974.72
2023-08-20T07:33:30.699Z,96977.44
2023-08-20T07:35:57.310Z,96974.75
2023-08-20T07:38:23.914Z,96973.22
2023-08-20T07:40:50.529Z,96980.56
2023-08-20T07:43:17.124Z,96976.31
2023-08-20T07:45:43.747Z,96983.25
2023-08-20T07:48:10.381Z,96978.63
2023-08-20T07:50:37.005Z,96983.25
2023-08-20T07:53:03.587Z,96975.50
2023-08-20T07:55:30.209Z,96979.78
2023-08-20T07:57:56.810Z,96981.72
2023-08-20T08:00:23.398Z,96982.47
2023-08-20T08:02:50.060Z,96977.09
2023-08-20T08:05:16.704Z,96983.25
2023-08-20T08:07:43.499Z,96982.47
2023-08-20T08:10:10.136Z,96983.28
2023-08-20T08:12:36.840Z,96978.63
2023-08-20T08:15:03.445Z,96980.16
2023-08-20T08:17:30.065Z,96987.88
2023-08-20T08:19:56.678Z,96992.13
2023-08-20T08:22:23.299Z,96994.81
2023-08-20T08:24:49.897Z,96983.59
2023-08-20T08:27:16.535Z,96985.50
2023-08-20T08:29:43.126Z,96993.97
2023-08-20T08:32:09.731Z,96992.44
2023-08-20T08:34:36.327Z,96994.72
2023-08-20T08:37:02.929Z,96987.38
2023-08-20T08:39:29.534Z,96992.41
2023-08-20T08:41:56.134Z,96989.69
2023-08-20T08:44:22.729Z,96991.63
2023-08-20T08:46:49.392Z,96987.75
2023-08-20T08:49:15.986Z,96990.44
2023-08-20T08:51:42.587Z,96987.78
2023-08-20T08:54:09.190Z,96995.84
2023-08-20T08:56:35.817Z,96995.09
2023-08-20T08:59:02.405Z,96986.63
2023-08-20T09:01:29.357Z,96993.94
2023-08-20T09:03:56.985Z,96990.44
2023-08-20T09:06:23.584Z,96991.63
2023-08-20T09:08:50.192Z,96991.97
2023-08-20T09:11:16.796Z,96983.09
2023-08-20T09:13:43.424Z,96988.47
2023-08-20T09:16:10.063Z,96983.84
2023-08-20T09:18:36.675Z,96990.78
2023-08-20T09:21:03.266Z,96985.38
2023-08-20T09:23:29.863Z,96981.91
2023-08-20T09:25:56.556Z,96979.97
2023-08-20T09:28:23.155Z,96983.44
2023-08-20T09:30:49.776Z,96983.06
2023-08-20T09:33:16.389Z,96975.00
2023-08-20T09:35:42.993Z,96975.75
2023-08-20T09:38:09.585Z,96990.00
2023-08-20T09:40:36.180Z,96980.78
2023-08-20T09:43:02.781Z,96988.91
2023-08-20T09:45:29.399Z,96988.13
2023-08-20T09:47:56.017Z,96981.53
2023-08-20T09:50:22.662Z,96981.91
2023-08-20T09:52:49.260Z,96979.97
2023-08-20T09:55:15.877Z,96976.91
2023-08-20T09:57:45.926Z,96972.63
2023-08-20T10:00:13.444Z,96978.88
2023-08-20T10:02:40.372Z,96971.22
2023-08-20T10:05:07.004Z,96974.31
2023-08-20T10:07:34.139Z,96968.91
2023-08-20T10:10:01.117Z,96970.00
2023-08-20T10:12:27.718Z,96976.97
2023-08-20T10:14:54.302Z,96965.34
2023-08-20T10:17:20.901Z,96970.00
2023-08-20T10:19:47.512Z,96968.06
2023-08-20T10:22:14.108Z,96966.13
2023-08-20T10:24:40.700Z,96962.66
2023-08-20T10:27:07.315Z,96962.25
2023-08-20T10:29:33.945Z,96967.66
2023-08-20T10:32:00.584Z,96958.78
2023-08-20T10:34:27.195Z,96958.78
2023-08-20T10:36:53.793Z,96959.91
2023-08-20T10:39:20.411Z,96955.28
2023-08-20T10:41:47.008Z,96958.75
2023-08-20T10:44:13.600Z,96957.59
2023-08-20T10:46:40.196Z,96959.50
2023-08-20T10:49:06.802Z,96955.28
2023-08-20T10:51:33.418Z,96950.63
2023-08-20T10:54:00.015Z,96943.34
2023-08-20T10:56:26.617Z,96942.19
2023-08-20T10:58:53.223Z,96947.97
2023-08-20T11:01:19.883Z,96951.06
2023-08-20T11:03:46.578Z,96945.63
2023-08-20T11:06:13.233Z,96949.91
2023-08-20T11:08:39.827Z,96944.09
2023-08-20T11:11:06.418Z,96944.47
2023-08-20T11:13:33.040Z,96934.81
2023-08-20T11:15:59.745Z,96932.50
2023-08-20T11:18:26.373Z,96935.19
2023-08-20T11:20:53.028Z,96925.16
2023-08-20T11:23:19.655Z,96928.97
2023-08-20T11:25:46.246Z,96930.19
2023-08-20T11:28:12.840Z,96934.38
2023-08-20T11:30:39.441Z,96934.00
2023-08-20T11:33:06.078Z,96922.03
2023-08-20T11:35:32.697Z,96930.13
2023-08-20T11:37:59.295Z,96929.75
2023-08-20T11:40:25.890Z,96919.72
2023-08-20T11:42:52.477Z,96920.47
2023-08-20T11:45:19.102Z,96918.91
2023-08-20T11:47:45.767Z,96910.41
2023-08-20T11:50:12.385Z,96910.03
2023-08-20T11:52:38.997Z,96907.69
2023-08-20T11:55:05.612Z,96908.47
2023-08-20T11:57:32.232Z,96908.81
2023-08-20T11:59:58.856Z,96908.81
2023-08-20T12:02:38.236Z,96899.97
2023-08-20T12:05:06.854Z,96904.50
2023-08-20T12:07:33.800Z,96897.19
2023-08-20T12:10:00.634Z,96893.31
2023-08-20T12:12:27.249Z,96897.94
2023-08-20T12:14:53.852Z,96896.00
2023-08-20T12:17:20.485Z,96890.97
2023-08-20T12:19:47.095Z,96888.28
2023-08-20T12:22:13.688Z,96888.63
2023-08-20T12:24:42.061Z,96880.56
2023-08-20T12:27:08.826Z,96878.31
2023-08-20T12:29:35.446Z,96875.19
2023-08-20T12:32:02.065Z,96880.59
2023-08-20T12:34:28.670Z,96876.75
2023-08-20T12:36:55.275Z,96867.50
2023-08-20T12:39:21.873Z,96874.06
2023-08-20T12:41:48.485Z,96865.94
2023-08-20T12:44:15.081Z,96863.25
2023-08-20T12:46:41.696Z,96865.19
2023-08-20T12:49:08.324Z,96862.47
2023-08-20T12:51:34.934Z,96864.75
2023-08-20T12:54:01.538Z,96865.50
2023-08-20T12:56:28.148Z,96859.34
2023-08-20T12:58:54.744Z,96854.69
2023-08-20T13:01:21.404Z,96852.72
2023-08-20T13:03:48.117Z,96853.94
2023-08-20T13:06:14.746Z,96843.88
2023-08-20T13:08:41.358Z,96845.44
2023-08-20T13:11:07.977Z,96843.13
2023-08-20T13:13:34.625Z,96843.88
2023-08-20T13:16:01.310Z,96843.88
2023-08-20T13:18:27.956Z,96838.81
2023-08-20T13:20:54.629Z,96839.59
2023-08-20T13:23:21.230Z,96839.22
2023-08-20T13:25:47.836Z,96841.97
2023-08-20T13:28:14.465Z,96843.06
2023-08-20T13:30:41.086Z,96846.91
2023-08-20T13:33:07.736Z,96840.34
2023-08-20T13:35:34.373Z,96838.41
2023-08-20T13:38:00.978Z,96839.56
2023-08-20T13:40:27.602Z,96834.09
2023-08-20T13:42:54.198Z,96834.06
2023-08-20T13:45:20.790Z,96837.13
2023-08-20T13:47:48.527Z,96831.31
2023-08-20T13:50:15.295Z,96826.28
2023-08-20T13:52:41.945Z,96832.44
2023-08-20T13:55:08.551Z,96824.34
2023-08-20T13:57:35.153Z,96833.22
2023-08-20T14:00:01.763Z,96832.97
2023-08-20T14:02:28.415Z,96835.66
2023-08-20T14:04:55.230Z,96828.25
2023-08-20T14:07:21.920Z,96822.16
2023-08-20T14:09:48.539Z,96824.53
2023-08-20T14:12:15.165Z,96826.09
2023-08-20T14:14:41.767Z,96819.56
2023-08-20T14:17:08.352Z,96835.03
2023-08-20T14:19:34.954Z,96823.44
2023-08-20T14:22:01.547Z,96820.34
2023-08-20T14:24:28.154Z,96818.41
2023-08-20T14:26:54.768Z,96819.16
2023-08-20T14:29:21.371Z,96814.94
2023-08-20T14:31:47.969Z,96811.81
2023-08-20T14:34:14.585Z,96806.81
2023-08-20T14:36:41.219Z,96800.22
2023-08-20T14:39:07.824Z,96800.97
2023-08-20T14:41:34.427Z,96799.03
2023-08-20T14:44:01.038Z,96800.22
2023-08-20T14:46:27.818Z,96795.56
2023-08-20T14:48:54.457Z,96800.97
2023-08-20T14:51:21.068Z,96799.38
2023-08-20T14:53:47.658Z,96799.72
2023-08-20T14:56:14.261Z,96804.38
2023-08-20T14:58:40.875Z,96802.81
2023-08-20T15:01:07.509Z,96798.19
2023-08-20T15:03:34.196Z,96801.28
2023-08-20T15:06:00.810Z,96798.97
2023-08-20T15:08:27.412Z,96794.78
2023-08-20T15:10:54.013Z,96794.38
2023-08-20T15:13:20.606Z,96791.31
2023-08-20T15:15:47.209Z,96798.66
2023-08-20T15:18:13.859Z,96787.88
2023-08-20T15:20:40.507Z,96791.00
2023-08-20T15:23:07.106Z,96790.22
2023-08-20T15:25:33.716Z,96788.31
2023-08-20T15:28:00.320Z,96788.28
2023-08-20T15:30:27.023Z,96791.38
2023-08-20T15:32:53.692Z,96784.81
2023-08-20T15:35:20.337Z,96784.81
2023-08-20T15:37:46.956Z,96781.34
2023-08-20T15:40:13.562Z,96780.94
2023-08-20T15:42:40.314Z,96778.56
2023-08-20T15:45:06.935Z,96792.84
2023-08-20T15:47:33.616Z,96784.34
2023-08-20T15:50:00.321Z,96774.72
2023-08-20T15:52:26.929Z,96775.13
2023-08-20T15:54:53.529Z,96779.34
2023-08-20T15:57:20.133Z,96782.44
2023-08-20T15:59:46.729Z,96781.25
2023-08-20T16:02:13.338Z,96784.34
2023-08-20T16:04:39.931Z,96785.91
2023-08-20T16:07:06.534Z,96787.06
2023-08-20T16:09:42.146Z,96790.13
2023-08-20T16:12:10.545Z,96788.97
2023-08-20T16:14:37.278Z,96793.19
2023-08-20T16:17:03.896Z,96783.50
2023-08-20T16:19:30.547Z,96778.50
2023-08-20T16:21:57.201Z,96782.38
2023-08-20T16:24:23.839Z,96780.03
2023-08-20T16:26:50.444Z,96783.50
2023-08-20T16:29:17.048Z,96790.09
2023-08-20T16:31:43.664Z,96801.28
2023-08-20T16:34:10.284Z,96802.03
2023-08-20T16:36:36.901Z,96819.78
2023-08-20T16:39:03.531Z,96820.16
2023-08-20T16:41:30.123Z,96828.28
2023-08-20T16:43:56.726Z,96825.56
2023-08-20T16:46:23.322Z,96824.03
2023-08-20T16:48:49.914Z,96821.69
2023-08-20T16:51:16.509Z,96824.41
2023-08-20T16:53:43.155Z,96817.84
2023-08-20T16:56:09.792Z,96826.72
2023-08-20T16:58:36.396Z,96822.84
2023-08-20T17:01:03.039Z,96822.09
2023-08-20T17:03:29.696Z,96822.81
2023-08-20T17:05:56.333Z,96831.69
2023-08-20T17:08:22.930Z,96821.28
2023-08-20T17:10:49.547Z,96821.25
2023-08-20T17:13:16.232Z,96822.00
2023-08-20T17:15:43.243Z,96821.63
2023-08-20T17:18:10.405Z,96829.75
2023-08-20T17:20:37.035Z,96822.06
2023-08-20T17:23:03.636Z,96826.28
2023-08-20T17:25:30.226Z,96832.13
2023-08-20T17:27:56.830Z,96834.06
2023-08-20T17:30:23.414Z,96838.22
2023-08-20T17:32:50.055Z,96836.31
2023-08-20T17:35:16.658Z,96836.34
2023-08-20T17:37:43.259Z,96829.81
2023-08-20T17:40:09.879Z,96827.88
2023-08-20T17:42:36.651Z,96828.63
2023-08-20T17:45:03.359Z,96828.63
2023-08-20T17:47:29.992Z,96826.28
2023-08-20T17:49:56.609Z,96834.06
2023-08-20T17:52:23.190Z,96827.91
2023-08-20T17:54:49.930Z,96834.50
2023-08-20T17:57:16.552Z,96831.03
2023-08-20T17:59:43.149Z,96837.22
2023-08-20T18:02:09.784Z,96845.00
2023-08-20T18:04:36.384Z,96846.50
2023-08-20T18:07:02.967Z,96843.41
2023-08-20T18:09:29.583Z,96840.72
2023-08-20T18:11:56.198Z,96841.09
2023-08-20T18:14:22.799Z,96846.16
2023-08-20T18:16:49.403Z,96847.28
2023-08-20T18:19:16.046Z,96848.09
2023-08-20T18:21:42.632Z,96853.84
2023-08-20T18:24:09.228Z,96849.59
2023-08-20T18:26:35.826Z,96853.50
2023-08-20T18:29:02.433Z,96849.63
2023-08-20T18:31:29.034Z,96851.19
2023-08-20T18:33:55.635Z,96851.13
2023-08-20T18:36:23.226Z,96856.94
2023-08-20T18:38:50.609Z,96857.69
2023-08-20T18:41:17.210Z,96861.22
2023-08-20T18:43:43.819Z,96865.09
2023-08-20T18:46:10.426Z,96856.94
2023-08-20T18:48:37.037Z,96865.44
2023-08-20T18:51:03.633Z,96867.34
2023-08-20T18:53:30.251Z,96873.97
2023-08-20T18:55:56.856Z,96873.94
2023-08-20T18:58:23.473Z,96879.72
2023-08-20T19:00:50.101Z,96883.97
2023-08-20T19:03:16.849Z,96884.31
2023-08-20T19:05:43.512Z,96889.38
2023-08-20T19:08:10.139Z,96890.53
2023-08-20T19:10:36.739Z,96892.41
2023-08-20T19:13:03.328Z,96893.19
2023-08-20T19:15:29.911Z,96899.75
2023-08-20T19:17:56.568Z,96905.16
2023-08-20T19:20:23.197Z,96898.66
2023-08-20T19:22:49.813Z,96905.16
2023-08-20T19:25:16.424Z,96911.75
2023-08-20T19:27:43.046Z,96912.19
2023-08-20T19:30:09.652Z,96917.97
2023-08-20T19:32:36.528Z,96917.94
2023-08-20T19:35:03.383Z,96920.28
2023-08-20T19:37:29.989Z,96920.63
2023-08-20T19:39:56.605Z,96914.50
2023-08-20T19:42:23.196Z,96921.63
2023-08-20T19:44:49.813Z,96936.81
2023-08-20T19:47:16.408Z,96932.97
2023-08-20T19:49:43.006Z,96931.16
2023-08-20T19:52:09.609Z,96939.69
2023-08-20T19:54:36.211Z,96934.25
2023-08-20T19:57:02.834Z,96940.56
2023-08-20T19:59:29.435Z,96936.69
2023-08-20T20:01:56.053Z,96924.69
2023-08-20T20:04:22.745Z,96939.69
2023-08-20T20:06:49.424Z,96942.41
2023-08-20T20:09:16.028Z,96944.63
2023-08-20T20:11:42.634Z,96942.66
2023-08-20T20:14:09.262Z,96948.78
2023-08-20T20:16:35.985Z,96950.75
2023-08-20T20:19:02.614Z,96947.66
2023-08-20T20:21:29.229Z,96951.50
2023-08-20T20:23:55.956Z,96949.19
2023-08-20T20:26:22.574Z,96949.63
2023-08-20T20:28:49.167Z,96954.59
2023-08-20T20:31:15.835Z,96949.63
2023-08-20T20:33:42.457Z,96954.97
2023-08-20T20:36:10.135Z,96955.38
2023-08-20T20:38:37.043Z,96963.63
2023-08-20T20:41:03.659Z,96960.94
2023-08-20T20:43:30.252Z,96968.69
2023-08-20T20:45:56.856Z,96969.03
2023-08-20T20:48:23.451Z,96972.50
2023-08-20T20:50:50.073Z,96965.56
2023-08-20T20:53:16.686Z,96959.41
2023-08-20T20:55:43.287Z,96956.72
2023-08-20T20:58:09.900Z,96964.50
2023-08-20T21:00:36.519Z,96959.91
2023-08-20T21:03:03.122Z,96962.22
2023-08-20T21:05:29.779Z,96967.22
2023-08-20T21:07:56.380Z,96972.16
2023-08-20T21:10:22.976Z,96965.84
2023-08-20T21:12:49.568Z,96964.63
2023-08-20T21:15:16.174Z,96969.94
2023-08-20T21:17:42.804Z,96967.16
2023-08-20T21:20:09.399Z,96978.31
2023-08-20T21:22:36.276Z,96970.53
2023-08-20T21:25:03.181Z,96980.16
2023-08-20T21:27:29.806Z,96978.97
2023-08-20T21:29:56.397Z,96972.41
2023-08-20T21:32:23.003Z,96973.13
2023-08-20T21:34:49.609Z,96981.22
2023-08-20T21:37:16.258Z,96971.56
2023-08-20T21:39:42.863Z,96968.88
2023-08-20T21:42:12.257Z,96976.97
2023-08-20T21:44:38.862Z,96973.47
2023-08-20T21:47:05.500Z,96977.38
2023-08-20T21:49:32.125Z,96973.91
2023-08-20T21:51:58.746Z,96975.13
2023-08-20T21:54:25.347Z,96979.34
2023-08-20T21:56:51.998Z,96975.50
2023-08-20T21:59:18.615Z,96973.56
2023-08-20T22:01:45.284Z,96971.63
2023-08-20T22:04:11.920Z,96974.72
2023-08-20T22:06:38.521Z,96978.63
2023-08-20T22:09:05.127Z,96976.31
2023-08-20T22:11:31.748Z,96977.09
2023-08-20T22:13:58.339Z,96985.59
2023-08-20T22:16:25.019Z,96981.72
2023-08-20T22:18:51.663Z,96990.25
2023-08-20T22:21:18.244Z,96983.66
2023-08-20T22:23:44.850Z,96985.56
2023-08-20T22:26:11.448Z,96982.84
2023-08-20T22:28:38.075Z,96978.63
2023-08-20T22:31:04.715Z,96981.72
2023-08-20T22:33:31.347Z,96977.09
2023-08-20T22:35:57.961Z,96984.03
2023-08-20T22:38:24.548Z,96988.25
2023-08-20T22:40:51.161Z,96987.50
2023-08-20T22:43:17.757Z,96989.81
2023-08-20T22:45:44.389Z,96993.31
2023-08-20T22:48:11.056Z,96985.97
2023-08-20T22:50:37.685Z,96981.34
2023-08-20T22:53:04.308Z,96985.56
2023-08-20T22:55:32.739Z,96981.69
2023-08-20T22:57:59.567Z,96976.66
2023-08-20T23:00:26.198Z,96977.88
2023-08-20T23:02:52.908Z,96985.97
2023-08-20T23:05:19.550Z,96990.19
2023-08-20T23:07:46.158Z,96989.84
2023-08-20T23:10:12.770Z,96991.78
2023-08-20T23:12:39.610Z,96989.84
2023-08-20T23:15:06.577Z,96992.91
2023-08-20T23:17:33.220Z,96987.16
2023-08-20T23:19:59.862Z,96991.38
2023-08-20T23:22:26.509Z,96994.09
2023-08-20T23:24:53.120Z,96987.94
2023-08-20T23:27:19.721Z,96986.00
2023-08-20T23:29:46.317Z,96987.16
2023-08-20T23:32:12.926Z,96983.28
2023-08-20T23:34:39.534Z,96981.00
2023-08-20T23:37:06.136Z,96982.53
2023-08-20T23:39:32.764Z,96986.41
2023-08-20T23:41:59.357Z,96987.16
2023-08-20T23:44:25.987Z,96984.44
2023-08-20T23:46:52.693Z,96989.88
2023-08-20T23:49:19.336Z,96987.16
2023-08-20T23:51:45.952Z,96982.94
2023-08-20T23:54:12.552Z,96987.97
2023-08-20T23:56:39.175Z,96994.16
2023-08-20T23:59:05.782Z,96988.75
